sensor_id;sensor_type;location;lat;lon;timestamp;temperature;humidity
21092;DHT22;10704;42.678;23.288;2022-11-25T00:03:44;5.60;99.90
21092;DHT22;10704;42.678;23.288;2022-11-25T00:06:15;5.60;99.90
21092;DHT22;10704;42.678;23.288;2022-11-25T00:08:42;5.60;99.90
21092;DHT22;10704;42.678;23.288;2022-11-25T00:11:10;5.60;99.90
21092;DHT22;10704;42.678;23.288;2022-11-25T00:13:37;5.60;99.90
21092;DHT22;10704;42.678;23.288;2022-11-25T00:16:05;5.60;99.90
21092;DHT22;10704;42.678;23.288;2022-11-25T00:18:31;5.60;99.90
21092;DHT22;10704;42.678;23.288;2022-11-25T00:20:58;5.60;99.90
21092;DHT22;10704;42.678;23.288;2022-11-25T00:23:29;5.60;99.90
21092;DHT22;10704;42.678;23.288;2022-11-25T00:25:55;5.60;99.90
21092;DHT22;10704;42.678;23.288;2022-11-25T00:28:20;5.60;99.90
21092;DHT22;10704;42.678;23.288;2022-11-25T00:30:48;5.60;99.90
21092;DHT22;10704;42.678;23.288;2022-11-25T00:33:14;5.50;99.90
21092;DHT22;10704;42.678;23.288;2022-11-25T00:35:40;5.50;99.90
21092;DHT22;10704;42.678;23.288;2022-11-25T00:38:06;5.60;99.90
21092;DHT22;10704;42.678;23.288;2022-11-25T00:40:32;5.50;99.90
21092;DHT22;10704;42.678;23.288;2022-11-25T00:42:58;5.50;99.90
21092;DHT22;10704;42.678;23.288;2022-11-25T00:45:43;5.50;99.90
21092;DHT22;10704;42.678;23.288;2022-11-25T00:48:09;5.50;99.90
21092;DHT22;10704;42.678;23.288;2022-11-25T00:50:34;5.40;99.90
21092;DHT22;10704;42.678;23.288;2022-11-25T00:53:00;5.50;99.90
21092;DHT22;10704;42.678;23.288;2022-11-25T00:55:26;5.50;99.90
21092;DHT22;10704;42.678;23.288;2022-11-25T00:58:12;5.50;99.90
21092;DHT22;10704;42.678;23.288;2022-11-25T01:00:38;5.50;99.90
21092;DHT22;10704;42.678;23.288;2022-11-25T01:03:04;5.50;99.90
21092;DHT22;10704;42.678;23.288;2022-11-25T01:05:31;5.50;99.90
21092;DHT22;10704;42.678;23.288;2022-11-25T01:07:57;5.50;99.90
21092;DHT22;10704;42.678;23.288;2022-11-25T01:10:23;5.50;99.90
21092;DHT22;10704;42.678;23.288;2022-11-25T01:12:49;5.50;99.90
21092;DHT22;10704;42.678;23.288;2022-11-25T01:15:15;5.50;99.90
21092;DHT22;10704;42.678;23.288;2022-11-25T01:17:41;5.50;99.90
21092;DHT22;10704;42.678;23.288;2022-11-25T01:20:07;5.50;99.90
21092;DHT22;10704;42.678;23.288;2022-11-25T01:22:33;5.50;99.90
21092;DHT22;10704;42.678;23.288;2022-11-25T01:25:03;5.50;99.90
21092;DHT22;10704;42.678;23.288;2022-11-25T01:27:28;5.50;99.90
21092;DHT22;10704;42.678;23.288;2022-11-25T01:29:54;5.50;99.90
21092;DHT22;10704;42.678;23.288;2022-11-25T01:32:20;5.50;99.90
21092;DHT22;10704;42.678;23.288;2022-11-25T01:34:46;5.50;99.90
21092;DHT22;10704;42.678;23.288;2022-11-25T01:37:12;5.50;99.90
21092;DHT22;10704;42.678;23.288;2022-11-25T01:39:38;5.50;99.90
21092;DHT22;10704;42.678;23.288;2022-11-25T01:42:04;5.50;99.90
21092;DHT22;10704;42.678;23.288;2022-11-25T01:44:31;5.50;99.90
21092;DHT22;10704;42.678;23.288;2022-11-25T01:52:18;5.60;99.90
21092;DHT22;10704;42.678;23.288;2022-11-25T01:57:29;5.70;99.90
21092;DHT22;10704;42.678;23.288;2022-11-25T01:59:59;5.70;99.90
21092;DHT22;10704;42.678;23.288;2022-11-25T02:02:27;5.70;99.90
21092;DHT22;10704;42.678;23.288;2022-11-25T02:04:53;5.70;99.90
21092;DHT22;10704;42.678;23.288;2022-11-25T02:07:29;5.70;99.90
21092;DHT22;10704;42.678;23.288;2022-11-25T02:09:56;5.70;99.90
21092;DHT22;10704;42.678;23.288;2022-11-25T02:12:23;5.80;99.90
21092;DHT22;10704;42.678;23.288;2022-11-25T02:14:51;5.70;99.90
21092;DHT22;10704;42.678;23.288;2022-11-25T02:17:18;5.70;99.90
21092;DHT22;10704;42.678;23.288;2022-11-25T02:25:21;5.70;99.90
21092;DHT22;10704;42.678;23.288;2022-11-25T02:28:07;5.70;99.90
21092;DHT22;10704;42.678;23.288;2022-11-25T02:30:36;5.70;99.90
21092;DHT22;10704;42.678;23.288;2022-11-25T02:33:02;5.60;99.90
21092;DHT22;10704;42.678;23.288;2022-11-25T02:35:40;5.60;99.90
21092;DHT22;10704;42.678;23.288;2022-11-25T02:38:23;5.60;99.90
21092;DHT22;10704;42.678;23.288;2022-11-25T02:40:57;5.60;99.90
21092;DHT22;10704;42.678;23.288;2022-11-25T02:43:25;5.70;99.90
21092;DHT22;10704;42.678;23.288;2022-11-25T02:46:09;5.60;99.90
21092;DHT22;10704;42.678;23.288;2022-11-25T02:48:37;5.70;99.90
21092;DHT22;10704;42.678;23.288;2022-11-25T02:51:04;5.70;99.90
21092;DHT22;10704;42.678;23.288;2022-11-25T02:53:30;5.60;99.90
21092;DHT22;10704;42.678;23.288;2022-11-25T02:55:57;5.70;99.90
21092;DHT22;10704;42.678;23.288;2022-11-25T02:58:22;5.60;99.90
21092;DHT22;10704;42.678;23.288;2022-11-25T03:00:48;5.60;99.90
21092;DHT22;10704;42.678;23.288;2022-11-25T03:03:14;5.60;99.90
21092;DHT22;10704;42.678;23.288;2022-11-25T03:05:41;5.60;99.90
21092;DHT22;10704;42.678;23.288;2022-11-25T03:08:07;5.60;99.90
21092;DHT22;10704;42.678;23.288;2022-11-25T03:10:36;5.60;99.90
21092;DHT22;10704;42.678;23.288;2022-11-25T03:13:03;5.60;99.90
21092;DHT22;10704;42.678;23.288;2022-11-25T03:15:29;5.60;99.90
21092;DHT22;10704;42.678;23.288;2022-11-25T03:17:55;5.60;99.90
21092;DHT22;10704;42.678;23.288;2022-11-25T03:20:22;5.60;99.90
21092;DHT22;10704;42.678;23.288;2022-11-25T03:22:49;5.60;99.90
21092;DHT22;10704;42.678;23.288;2022-11-25T03:25:15;5.50;99.90
21092;DHT22;10704;42.678;23.288;2022-11-25T03:27:43;5.50;99.90
21092;DHT22;10704;42.678;23.288;2022-11-25T03:30:12;5.50;99.90
21092;DHT22;10704;42.678;23.288;2022-11-25T03:32:39;5.50;99.90
21092;DHT22;10704;42.678;23.288;2022-11-25T03:35:05;5.40;99.90
21092;DHT22;10704;42.678;23.288;2022-11-25T03:37:32;5.40;99.90
21092;DHT22;10704;42.678;23.288;2022-11-25T03:39:58;5.30;99.90
21092;DHT22;10704;42.678;23.288;2022-11-25T03:42:24;5.30;99.90
21092;DHT22;10704;42.678;23.288;2022-11-25T03:44:50;5.30;99.90
21092;DHT22;10704;42.678;23.288;2022-11-25T03:47:16;5.30;99.90
21092;DHT22;10704;42.678;23.288;2022-11-25T03:49:42;5.20;99.90
21092;DHT22;10704;42.678;23.288;2022-11-25T03:52:08;5.20;99.90
21092;DHT22;10704;42.678;23.288;2022-11-25T03:54:34;5.20;99.90
21092;DHT22;10704;42.678;23.288;2022-11-25T03:57:29;5.10;99.90
21092;DHT22;10704;42.678;23.288;2022-11-25T03:59:56;5.10;99.90
21092;DHT22;10704;42.678;23.288;2022-11-25T04:02:22;5.10;99.90
21092;DHT22;10704;42.678;23.288;2022-11-25T04:04:49;5.10;99.90
21092;DHT22;10704;42.678;23.288;2022-11-25T04:07:16;5.10;99.90
21092;DHT22;10704;42.678;23.288;2022-11-25T04:09:42;5.00;99.90
21092;DHT22;10704;42.678;23.288;2022-11-25T04:12:10;5.00;99.90
21092;DHT22;10704;42.678;23.288;2022-11-25T04:15:02;5.00;99.90
21092;DHT22;10704;42.678;23.288;2022-11-25T04:17:27;5.00;99.90
21092;DHT22;10704;42.678;23.288;2022-11-25T04:19:54;5.10;99.90
21092;DHT22;10704;42.678;23.288;2022-11-25T04:22:20;5.10;99.90
21092;DHT22;10704;42.678;23.288;2022-11-25T04:24:47;5.00;99.90
21092;DHT22;10704;42.678;23.288;2022-11-25T04:27:18;5.00;99.90
21092;DHT22;10704;42.678;23.288;2022-11-25T04:29:44;5.00;99.90
21092;DHT22;10704;42.678;23.288;2022-11-25T04:32:12;5.00;99.90
21092;DHT22;10704;42.678;23.288;2022-11-25T04:34:39;5.00;99.90
21092;DHT22;10704;42.678;23.288;2022-11-25T04:37:06;5.00;99.90
21092;DHT22;10704;42.678;23.288;2022-11-25T04:39:32;5.00;99.90
21092;DHT22;10704;42.678;23.288;2022-11-25T04:42:03;4.90;99.90
21092;DHT22;10704;42.678;23.288;2022-11-25T04:44:48;4.90;99.90
21092;DHT22;10704;42.678;23.288;2022-11-25T04:47:13;4.90;99.90
21092;DHT22;10704;42.678;23.288;2022-11-25T04:49:39;4.90;99.90
21092;DHT22;10704;42.678;23.288;2022-11-25T04:52:06;4.90;99.90
21092;DHT22;10704;42.678;23.288;2022-11-25T04:54:32;4.90;99.90
21092;DHT22;10704;42.678;23.288;2022-11-25T04:56:58;4.90;99.90
21092;DHT22;10704;42.678;23.288;2022-11-25T04:59:25;4.90;99.90
21092;DHT22;10704;42.678;23.288;2022-11-25T05:02:17;4.90;99.90
21092;DHT22;10704;42.678;23.288;2022-11-25T05:04:54;4.90;99.90
21092;DHT22;10704;42.678;23.288;2022-11-25T05:07:22;5.00;99.90
21092;DHT22;10704;42.678;23.288;2022-11-25T05:09:50;5.10;99.90
21092;DHT22;10704;42.678;23.288;2022-11-25T05:12:26;5.00;99.90
21092;DHT22;10704;42.678;23.288;2022-11-25T05:14:53;5.00;99.90
21092;DHT22;10704;42.678;23.288;2022-11-25T05:17:23;4.90;99.90
21092;DHT22;10704;42.678;23.288;2022-11-25T05:19:50;4.90;99.90
21092;DHT22;10704;42.678;23.288;2022-11-25T05:22:30;5.00;99.90
21092;DHT22;10704;42.678;23.288;2022-11-25T05:24:57;5.00;99.90
21092;DHT22;10704;42.678;23.288;2022-11-25T05:27:24;5.10;99.90
21092;DHT22;10704;42.678;23.288;2022-11-25T05:29:51;5.10;99.90
21092;DHT22;10704;42.678;23.288;2022-11-25T05:32:17;5.10;99.90
21092;DHT22;10704;42.678;23.288;2022-11-25T05:34:43;5.10;99.90
21092;DHT22;10704;42.678;23.288;2022-11-25T05:37:11;5.10;99.90
21092;DHT22;10704;42.678;23.288;2022-11-25T05:39:39;5.10;99.90
21092;DHT22;10704;42.678;23.288;2022-11-25T05:42:21;5.20;99.90
21092;DHT22;10704;42.678;23.288;2022-11-25T05:44:47;5.20;99.90
21092;DHT22;10704;42.678;23.288;2022-11-25T05:47:13;5.20;99.90
21092;DHT22;10704;42.678;23.288;2022-11-25T05:49:40;5.20;99.90
21092;DHT22;10704;42.678;23.288;2022-11-25T05:52:06;5.30;99.90
21092;DHT22;10704;42.678;23.288;2022-11-25T05:54:38;5.30;99.90
21092;DHT22;10704;42.678;23.288;2022-11-25T05:57:06;5.30;99.90
21092;DHT22;10704;42.678;23.288;2022-11-25T05:59:41;5.40;99.90
21092;DHT22;10704;42.678;23.288;2022-11-25T06:02:12;5.40;99.90
21092;DHT22;10704;42.678;23.288;2022-11-25T06:04:39;5.40;99.90
21092;DHT22;10704;42.678;23.288;2022-11-25T06:07:05;5.50;99.90
21092;DHT22;10704;42.678;23.288;2022-11-25T06:09:32;5.50;99.90
21092;DHT22;10704;42.678;23.288;2022-11-25T06:11:58;5.50;99.90
21092;DHT22;10704;42.678;23.288;2022-11-25T06:14:24;5.60;99.90
21092;DHT22;10704;42.678;23.288;2022-11-25T06:16:50;5.60;99.90
21092;DHT22;10704;42.678;23.288;2022-11-25T06:19:37;5.60;99.90
21092;DHT22;10704;42.678;23.288;2022-11-25T06:22:03;5.60;99.90
21092;DHT22;10704;42.678;23.288;2022-11-25T06:24:29;5.60;99.90
21092;DHT22;10704;42.678;23.288;2022-11-25T06:27:00;5.60;99.90
21092;DHT22;10704;42.678;23.288;2022-11-25T06:29:26;5.60;99.90
21092;DHT22;10704;42.678;23.288;2022-11-25T06:31:51;5.60;99.90
21092;DHT22;10704;42.678;23.288;2022-11-25T06:34:36;5.60;99.90
21092;DHT22;10704;42.678;23.288;2022-11-25T06:37:08;5.70;99.90
21092;DHT22;10704;42.678;23.288;2022-11-25T06:39:34;5.70;99.90
21092;DHT22;10704;42.678;23.288;2022-11-25T06:42:00;5.80;99.90
21092;DHT22;10704;42.678;23.288;2022-11-25T06:44:26;5.80;99.90
21092;DHT22;10704;42.678;23.288;2022-11-25T06:46:51;5.80;99.90
21092;DHT22;10704;42.678;23.288;2022-11-25T06:49:17;5.80;99.90
21092;DHT22;10704;42.678;23.288;2022-11-25T06:51:43;5.80;99.90
21092;DHT22;10704;42.678;23.288;2022-11-25T06:54:09;5.90;99.90
21092;DHT22;10704;42.678;23.288;2022-11-25T06:56:36;5.90;99.90
21092;DHT22;10704;42.678;23.288;2022-11-25T06:59:02;5.80;99.90
21092;DHT22;10704;42.678;23.288;2022-11-25T07:01:29;5.80;99.90
21092;DHT22;10704;42.678;23.288;2022-11-25T07:04:02;5.90;99.90
21092;DHT22;10704;42.678;23.288;2022-11-25T07:06:29;5.90;99.90
21092;DHT22;10704;42.678;23.288;2022-11-25T07:08:55;5.90;99.90
21092;DHT22;10704;42.678;23.288;2022-11-25T07:11:36;5.90;99.90
21092;DHT22;10704;42.678;23.288;2022-11-25T07:14:05;5.90;99.90
21092;DHT22;10704;42.678;23.288;2022-11-25T07:16:31;5.90;99.90
21092;DHT22;10704;42.678;23.288;2022-11-25T07:19:01;5.90;99.90
21092;DHT22;10704;42.678;23.288;2022-11-25T07:21:28;5.90;99.90
21092;DHT22;10704;42.678;23.288;2022-11-25T07:23:56;6.00;99.90
21092;DHT22;10704;42.678;23.288;2022-11-25T07:26:28;6.00;99.90
21092;DHT22;10704;42.678;23.288;2022-11-25T07:28:58;6.10;99.90
21092;DHT22;10704;42.678;23.288;2022-11-25T07:31:25;6.00;99.90
21092;DHT22;10704;42.678;23.288;2022-11-25T07:33:52;6.00;99.90
21092;DHT22;10704;42.678;23.288;2022-11-25T07:36:19;6.00;99.90
21092;DHT22;10704;42.678;23.288;2022-11-25T07:38:45;6.00;99.90
21092;DHT22;10704;42.678;23.288;2022-11-25T07:41:13;6.00;99.90
21092;DHT22;10704;42.678;23.288;2022-11-25T07:43:39;6.00;99.90
21092;DHT22;10704;42.678;23.288;2022-11-25T07:46:13;6.20;99.90
21092;DHT22;10704;42.678;23.288;2022-11-25T07:48:40;6.90;99.90
21092;DHT22;10704;42.678;23.288;2022-11-25T07:51:21;7.20;99.90
21092;DHT22;10704;42.678;23.288;2022-11-25T07:53:49;7.30;99.90
21092;DHT22;10704;42.678;23.288;2022-11-25T07:56:15;7.50;99.90
21092;DHT22;10704;42.678;23.288;2022-11-25T07:58:42;7.80;99.90
21092;DHT22;10704;42.678;23.288;2022-11-25T08:01:10;8.00;99.90
21092;DHT22;10704;42.678;23.288;2022-11-25T08:03:38;8.20;99.90
21092;DHT22;10704;42.678;23.288;2022-11-25T08:06:07;8.30;99.90
21092;DHT22;10704;42.678;23.288;2022-11-25T08:08:35;8.60;99.90
21092;DHT22;10704;42.678;23.288;2022-11-25T08:11:06;8.90;99.90
21092;DHT22;10704;42.678;23.288;2022-11-25T08:13:32;8.90;99.90
21092;DHT22;10704;42.678;23.288;2022-11-25T08:15:58;8.20;99.90
21092;DHT22;10704;42.678;23.288;2022-11-25T08:18:25;7.80;99.90
21092;DHT22;10704;42.678;23.288;2022-11-25T08:20:51;8.10;99.90
21092;DHT22;10704;42.678;23.288;2022-11-25T08:23:17;7.70;99.90
21092;DHT22;10704;42.678;23.288;2022-11-25T08:25:42;7.50;99.90
21092;DHT22;10704;42.678;23.288;2022-11-25T08:28:09;7.50;99.90
21092;DHT22;10704;42.678;23.288;2022-11-25T08:30:35;7.60;99.90
21092;DHT22;10704;42.678;23.288;2022-11-25T08:33:01;8.40;99.90
21092;DHT22;10704;42.678;23.288;2022-11-25T08:35:30;9.20;99.90
21092;DHT22;10704;42.678;23.288;2022-11-25T08:37:57;9.60;99.90
21092;DHT22;10704;42.678;23.288;2022-11-25T08:40:22;9.00;99.90
21092;DHT22;10704;42.678;23.288;2022-11-25T08:42:48;8.90;99.90
21092;DHT22;10704;42.678;23.288;2022-11-25T08:45:14;9.20;99.90
21092;DHT22;10704;42.678;23.288;2022-11-25T08:47:40;9.80;99.90
21092;DHT22;10704;42.678;23.288;2022-11-25T08:50:08;10.00;99.90
21092;DHT22;10704;42.678;23.288;2022-11-25T08:52:34;10.70;99.90
21092;DHT22;10704;42.678;23.288;2022-11-25T08:55:00;10.90;99.90
21092;DHT22;10704;42.678;23.288;2022-11-25T08:57:26;11.00;98.70
21092;DHT22;10704;42.678;23.288;2022-11-25T08:59:52;10.70;99.00
21092;DHT22;10704;42.678;23.288;2022-11-25T09:02:18;10.60;99.30
21092;DHT22;10704;42.678;23.288;2022-11-25T09:04:44;11.50;97.80
21092;DHT22;10704;42.678;23.288;2022-11-25T09:07:10;10.80;98.60
21092;DHT22;10704;42.678;23.288;2022-11-25T09:09:35;10.30;99.00
21092;DHT22;10704;42.678;23.288;2022-11-25T09:12:01;9.50;99.90
21092;DHT22;10704;42.678;23.288;2022-11-25T09:14:27;10.40;99.90
21092;DHT22;10704;42.678;23.288;2022-11-25T09:16:53;11.00;98.80
21092;DHT22;10704;42.678;23.288;2022-11-25T09:19:22;9.70;99.90
21092;DHT22;10704;42.678;23.288;2022-11-25T09:21:48;9.60;99.90
21092;DHT22;10704;42.678;23.288;2022-11-25T09:24:13;10.10;99.90
21092;DHT22;10704;42.678;23.288;2022-11-25T09:26:39;10.60;99.90
21092;DHT22;10704;42.678;23.288;2022-11-25T09:29:07;10.70;98.50
21092;DHT22;10704;42.678;23.288;2022-11-25T09:31:33;10.90;99.20
21092;DHT22;10704;42.678;23.288;2022-11-25T09:33:59;11.50;97.70
21092;DHT22;10704;42.678;23.288;2022-11-25T09:36:25;11.50;96.70
21092;DHT22;10704;42.678;23.288;2022-11-25T09:38:51;11.20;96.80
21092;DHT22;10704;42.678;23.288;2022-11-25T09:56:03;12.70;93.60
21092;DHT22;10704;42.678;23.288;2022-11-25T09:58:36;11.80;94.10
21092;DHT22;10704;42.678;23.288;2022-11-25T10:01:10;10.80;95.50
21092;DHT22;10704;42.678;23.288;2022-11-25T10:03:44;9.40;96.90
21092;DHT22;10704;42.678;23.288;2022-11-25T10:06:24;8.70;99.00
21092;DHT22;10704;42.678;23.288;2022-11-25T10:09:00;8.40;99.90
21092;DHT22;10704;42.678;23.288;2022-11-25T10:14:47;10.30;98.80
21092;DHT22;10704;42.678;23.288;2022-11-25T10:22:40;9.90;99.10
21092;DHT22;10704;42.678;23.288;2022-11-25T10:25:22;9.70;99.00
21092;DHT22;10704;42.678;23.288;2022-11-25T10:28:00;9.40;99.10
21092;DHT22;10704;42.678;23.288;2022-11-25T10:30:36;9.40;99.90
21092;DHT22;10704;42.678;23.288;2022-11-25T10:35:37;8.70;99.90
21092;DHT22;10704;42.678;23.288;2022-11-25T10:38:10;8.20;99.90
21092;DHT22;10704;42.678;23.288;2022-11-25T10:40:37;9.20;99.90
21092;DHT22;10704;42.678;23.288;2022-11-25T10:43:11;10.10;99.00
21092;DHT22;10704;42.678;23.288;2022-11-25T10:45:59;10.90;97.20
21092;DHT22;10704;42.678;23.288;2022-11-25T10:54:26;13.90;89.90
21092;DHT22;10704;42.678;23.288;2022-11-25T10:57:03;12.20;91.30
21092;DHT22;10704;42.678;23.288;2022-11-25T10:59:34;11.10;92.90
21092;DHT22;10704;42.678;23.288;2022-11-25T11:05:24;9.10;97.30
21092;DHT22;10704;42.678;23.288;2022-11-25T11:08:16;8.90;99.10
21092;DHT22;10704;42.678;23.288;2022-11-25T11:10:44;8.40;99.90
21092;DHT22;10704;42.678;23.288;2022-11-25T11:13:23;8.20;99.90
21092;DHT22;10704;42.678;23.288;2022-11-25T11:15:52;7.90;99.90
21092;DHT22;10704;42.678;23.288;2022-11-25T11:20:55;7.90;99.90
21092;DHT22;10704;42.678;23.288;2022-11-25T11:23:22;7.90;99.90
21092;DHT22;10704;42.678;23.288;2022-11-25T11:36:27;7.60;99.90
21092;DHT22;10704;42.678;23.288;2022-11-25T11:41:49;7.90;99.90
21092;DHT22;10704;42.678;23.288;2022-11-25T11:44:34;7.80;99.90
21092;DHT22;10704;42.678;23.288;2022-11-25T11:47:26;7.60;99.90
21092;DHT22;10704;42.678;23.288;2022-11-25T12:03:33;9.90;99.90
21092;DHT22;10704;42.678;23.288;2022-11-25T12:06:03;9.50;99.90
21092;DHT22;10704;42.678;23.288;2022-11-25T12:08:41;9.30;99.90
21092;DHT22;10704;42.678;23.288;2022-11-25T12:11:21;9.10;99.90
21092;DHT22;10704;42.678;23.288;2022-11-25T12:14:02;9.70;99.90
21092;DHT22;10704;42.678;23.288;2022-11-25T12:17:01;10.00;99.90
21092;DHT22;10704;42.678;23.288;2022-11-25T12:19:51;9.60;99.90
21092;DHT22;10704;42.678;23.288;2022-11-25T12:22:20;9.70;99.90
21092;DHT22;10704;42.678;23.288;2022-11-25T12:25:27;10.10;99.90
21092;DHT22;10704;42.678;23.288;2022-11-25T12:28:00;10.10;99.90
21092;DHT22;10704;42.678;23.288;2022-11-25T12:30:52;10.10;99.90
21092;DHT22;10704;42.678;23.288;2022-11-25T12:33:59;9.80;99.90
21092;DHT22;10704;42.678;23.288;2022-11-25T12:36:34;10.60;99.90
21092;DHT22;10704;42.678;23.288;2022-11-25T12:42:02;9.90;99.90
21092;DHT22;10704;42.678;23.288;2022-11-25T12:44:39;9.50;99.90
21092;DHT22;10704;42.678;23.288;2022-11-25T12:47:09;9.50;99.90
21092;DHT22;10704;42.678;23.288;2022-11-25T12:49:44;9.70;99.90
21092;DHT22;10704;42.678;23.288;2022-11-25T12:52:32;9.40;99.90
21092;DHT22;10704;42.678;23.288;2022-11-25T12:55:18;9.40;99.90
21092;DHT22;10704;42.678;23.288;2022-11-25T12:57:56;9.40;99.90
21092;DHT22;10704;42.678;23.288;2022-11-25T13:00:52;9.40;99.90
21092;DHT22;10704;42.678;23.288;2022-11-25T13:16:22;8.60;99.90
21092;DHT22;10704;42.678;23.288;2022-11-25T13:18:58;8.00;99.90
21092;DHT22;10704;42.678;23.288;2022-11-25T13:21:24;7.80;99.90
21092;DHT22;10704;42.678;23.288;2022-11-25T13:23:54;7.60;99.90
21092;DHT22;10704;42.678;23.288;2022-11-25T13:34:42;7.20;99.90
21092;DHT22;10704;42.678;23.288;2022-11-25T13:47:40;7.00;99.90
21092;DHT22;10704;42.678;23.288;2022-11-25T13:52:41;7.10;99.90
21092;DHT22;10704;42.678;23.288;2022-11-25T14:06:05;7.10;99.90
21092;DHT22;10704;42.678;23.288;2022-11-25T14:22:55;6.50;99.90
21092;DHT22;10704;42.678;23.288;2022-11-25T14:25:28;6.50;99.90
21092;DHT22;10704;42.678;23.288;2022-11-25T14:28:08;6.50;99.90
21092;DHT22;10704;42.678;23.288;2022-11-25T14:30:43;6.40;99.90
21092;DHT22;10704;42.678;23.288;2022-11-25T14:33:14;6.30;99.90
21092;DHT22;10704;42.678;23.288;2022-11-25T14:39:33;6.30;99.90
21092;DHT22;10704;42.678;23.288;2022-11-25T14:46:09;6.20;99.90
21092;DHT22;10704;42.678;23.288;2022-11-25T14:48:35;6.20;99.90
21092;DHT22;10704;42.678;23.288;2022-11-25T14:51:06;6.10;99.90
21092;DHT22;10704;42.678;23.288;2022-11-25T14:53:58;6.10;99.90
21092;DHT22;10704;42.678;23.288;2022-11-25T14:56:29;6.00;99.90
21092;DHT22;10704;42.678;23.288;2022-11-25T14:58:56;6.00;99.90
21092;DHT22;10704;42.678;23.288;2022-11-25T15:01:29;6.00;99.90
21092;DHT22;10704;42.678;23.288;2022-11-25T15:04:17;5.90;99.90
21092;DHT22;10704;42.678;23.288;2022-11-25T15:06:52;5.90;99.90
21092;DHT22;10704;42.678;23.288;2022-11-25T15:09:25;5.90;99.90
21092;DHT22;10704;42.678;23.288;2022-11-25T15:12:17;5.90;99.90
21092;DHT22;10704;42.678;23.288;2022-11-25T15:14:50;5.90;99.90
21092;DHT22;10704;42.678;23.288;2022-11-25T15:17:30;5.90;99.90
21092;DHT22;10704;42.678;23.288;2022-11-25T15:20:14;5.80;99.90
21092;DHT22;10704;42.678;23.288;2022-11-25T15:22:46;5.80;99.90
21092;DHT22;10704;42.678;23.288;2022-11-25T15:27:59;5.80;99.90
21092;DHT22;10704;42.678;23.288;2022-11-25T15:30:27;5.80;99.90
21092;DHT22;10704;42.678;23.288;2022-11-25T15:32:54;5.80;99.90
21092;DHT22;10704;42.678;23.288;2022-11-25T15:35:23;5.80;99.90
21092;DHT22;10704;42.678;23.288;2022-11-25T15:37:50;5.80;99.90
21092;DHT22;10704;42.678;23.288;2022-11-25T15:44:13;5.80;99.90
21092;DHT22;10704;42.678;23.288;2022-11-25T15:46:59;5.80;99.90
21092;DHT22;10704;42.678;23.288;2022-11-25T15:49:27;5.80;99.90
21092;DHT22;10704;42.678;23.288;2022-11-25T15:51:57;5.80;99.90
21092;DHT22;10704;42.678;23.288;2022-11-25T15:54:30;5.80;99.90
21092;DHT22;10704;42.678;23.288;2022-11-25T15:57:00;5.80;99.90
21092;DHT22;10704;42.678;23.288;2022-11-25T15:59:44;5.70;99.90
21092;DHT22;10704;42.678;23.288;2022-11-25T16:08:57;5.70;99.90
21092;DHT22;10704;42.678;23.288;2022-11-25T16:11:26;5.70;99.90
21092;DHT22;10704;42.678;23.288;2022-11-25T16:14:16;5.70;99.90
21092;DHT22;10704;42.678;23.288;2022-11-25T16:19:56;5.70;99.90
21092;DHT22;10704;42.678;23.288;2022-11-25T16:22:22;5.70;99.90
21092;DHT22;10704;42.678;23.288;2022-11-25T16:24:52;5.80;99.90
21092;DHT22;10704;42.678;23.288;2022-11-25T16:27:25;5.80;99.90
21092;DHT22;10704;42.678;23.288;2022-11-25T16:32:27;5.70;99.90
21092;DHT22;10704;42.678;23.288;2022-11-25T16:34:54;5.70;99.90
21092;DHT22;10704;42.678;23.288;2022-11-25T16:37:21;5.70;99.90
21092;DHT22;10704;42.678;23.288;2022-11-25T16:39:47;5.70;99.90
21092;DHT22;10704;42.678;23.288;2022-11-25T16:42:17;5.60;99.90
21092;DHT22;10704;42.678;23.288;2022-11-25T16:44:49;5.60;99.90
21092;DHT22;10704;42.678;23.288;2022-11-25T16:47:17;5.60;99.90
21092;DHT22;10704;42.678;23.288;2022-11-25T16:49:43;5.60;99.90
21092;DHT22;10704;42.678;23.288;2022-11-25T16:52:09;5.60;99.90
21092;DHT22;10704;42.678;23.288;2022-11-25T16:54:35;5.60;99.90
21092;DHT22;10704;42.678;23.288;2022-11-25T16:57:02;5.50;99.90
21092;DHT22;10704;42.678;23.288;2022-11-25T16:59:32;5.60;99.90
21092;DHT22;10704;42.678;23.288;2022-11-25T17:02:00;5.50;99.90
21092;DHT22;10704;42.678;23.288;2022-11-25T17:08:15;5.60;99.90
21092;DHT22;10704;42.678;23.288;2022-11-25T17:10:43;5.60;99.90
21092;DHT22;10704;42.678;23.288;2022-11-25T17:13:20;5.60;99.90
21092;DHT22;10704;42.678;23.288;2022-11-25T17:15:48;5.60;99.90
21092;DHT22;10704;42.678;23.288;2022-11-25T17:18:15;5.60;99.90
21092;DHT22;10704;42.678;23.288;2022-11-25T17:20:45;5.60;99.90
21092;DHT22;10704;42.678;23.288;2022-11-25T17:23:15;5.60;99.90
21092;DHT22;10704;42.678;23.288;2022-11-25T17:25:45;5.60;99.90
21092;DHT22;10704;42.678;23.288;2022-11-25T17:28:18;5.60;99.90
21092;DHT22;10704;42.678;23.288;2022-11-25T17:30:45;5.50;99.90
21092;DHT22;10704;42.678;23.288;2022-11-25T17:33:14;5.50;99.90
21092;DHT22;10704;42.678;23.288;2022-11-25T17:35:44;5.50;99.90
21092;DHT22;10704;42.678;23.288;2022-11-25T17:38:17;5.50;99.90
21092;DHT22;10704;42.678;23.288;2022-11-25T17:40:44;5.50;99.90
21092;DHT22;10704;42.678;23.288;2022-11-25T17:43:18;5.40;99.90
21092;DHT22;10704;42.678;23.288;2022-11-25T17:45:45;5.50;99.90
21092;DHT22;10704;42.678;23.288;2022-11-25T17:48:14;5.50;99.90
21092;DHT22;10704;42.678;23.288;2022-11-25T17:50:40;5.50;99.90
21092;DHT22;10704;42.678;23.288;2022-11-25T17:53:06;5.50;99.90
21092;DHT22;10704;42.678;23.288;2022-11-25T17:55:34;5.50;99.90
21092;DHT22;10704;42.678;23.288;2022-11-25T17:58:01;5.50;99.90
21092;DHT22;10704;42.678;23.288;2022-11-25T18:00:27;5.50;99.90
21092;DHT22;10704;42.678;23.288;2022-11-25T18:02:53;5.50;99.90
21092;DHT22;10704;42.678;23.288;2022-11-25T18:05:21;5.50;99.90
21092;DHT22;10704;42.678;23.288;2022-11-25T18:07:48;5.50;99.90
21092;DHT22;10704;42.678;23.288;2022-11-25T18:10:20;5.50;99.90
21092;DHT22;10704;42.678;23.288;2022-11-25T18:12:49;5.50;99.90
21092;DHT22;10704;42.678;23.288;2022-11-25T18:15:22;5.40;99.90
21092;DHT22;10704;42.678;23.288;2022-11-25T18:17:49;5.40;99.90
21092;DHT22;10704;42.678;23.288;2022-11-25T18:23:21;5.50;99.90
21092;DHT22;10704;42.678;23.288;2022-11-25T18:25:46;5.50;99.90
21092;DHT22;10704;42.678;23.288;2022-11-25T18:28:27;5.40;99.90
21092;DHT22;10704;42.678;23.288;2022-11-25T18:31:01;5.40;99.90
21092;DHT22;10704;42.678;23.288;2022-11-25T18:33:28;5.40;99.90
21092;DHT22;10704;42.678;23.288;2022-11-25T18:35:54;5.40;99.90
21092;DHT22;10704;42.678;23.288;2022-11-25T18:38:20;5.40;99.90
21092;DHT22;10704;42.678;23.288;2022-11-25T18:40:46;5.30;99.90
21092;DHT22;10704;42.678;23.288;2022-11-25T18:43:15;5.40;99.90
21092;DHT22;10704;42.678;23.288;2022-11-25T18:45:43;5.40;99.90